Time;durP1;ratioP1;P1;durP2;ratioP2;P2;SDS_P1;SDS_P2;PMS_P1;PMS_P2;Temp;Humidity;BMP_temperature;BMP_pressure;BME280_temperature;BME280_humidity;BME280_pressure;Samples;Min_cycle;Max_cycle;Signal;HPM_P1;HPM_P2
2022/01/02 10:23:06;;;;;;;17.97;14.57;;;11.80;99.90;;;;;;5121849;27;20341;-70
2022/01/02 10:25:58;;;;;;;11.67;8.03;;;11.90;99.90;;;;;;5125397;27;20054;-70
2022/01/02 10:28:37;;;;;;;11.73;7.37;;;11.90;99.90;;;;;;5124213;28;20047;-73
2022/01/02 10:31:07;;;;;;;11.23;6.47;;;12.00;99.90;;;;;;5124771;28;20076;-71
2022/01/02 10:33:52;;;;;;;11.63;7.57;;;12.00;99.90;;;;;;5123268;28;20088;-71
2022/01/02 10:36:35;;;;;;;12.87;7.27;;;12.10;99.90;;;;;;5124156;28;20051;-73
2022/01/02 10:39:11;;;;;;;10.20;7.90;;;12.10;99.90;;;;;;5125791;27;20042;-70
2022/01/02 10:41:47;;;;;;;13.53;8.23;;;12.20;99.90;;;;;;5124409;27;20085;-70
2022/01/02 10:44:26;;;;;;;10.73;7.33;;;12.20;99.90;;;;;;5124081;28;20138;-71
2022/01/02 10:47:14;;;;;;;13.90;7.93;;;12.30;99.90;;;;;;5124101;28;20051;-69
2022/01/02 10:50:04;;;;;;;11.53;6.90;;;12.30;99.90;;;;;;5125336;27;20491;-71
2022/01/02 10:52:38;;;;;;;9.67;7.80;;;12.30;99.90;;;;;;5123171;28;20491;-70
2022/01/02 10:55:17;;;;;;;16.60;10.07;;;12.30;99.90;;;;;;5124373;28;20043;-70
2022/01/02 10:57:47;;;;;;;10.97;6.73;;;12.30;99.90;;;;;;5124236;28;20894;-71
2022/01/02 11:00:14;;;;;;;15.07;7.87;;;12.40;99.90;;;;;;5124171;28;20043;-75
2022/01/02 11:02:40;;;;;;;15.60;8.00;;;12.40;99.90;;;;;;5120570;28;20039;-75
2022/01/02 11:05:11;;;;;;;14.60;8.13;;;12.40;99.90;;;;;;5123302;28;20032;-76
2022/01/02 11:07:51;;;;;;;11.67;6.60;;;12.50;99.90;;;;;;5122747;28;20058;-76
2022/01/02 11:10:21;;;;;;;10.50;6.67;;;12.50;99.90;;;;;;5122539;28;20042;-73
2022/01/02 11:12:48;;;;;;;9.77;6.30;;;12.50;99.90;;;;;;5124120;27;20571;-75
2022/01/02 11:15:19;;;;;;;11.80;6.00;;;12.50;99.90;;;;;;5122895;28;20126;-67
2022/01/02 11:17:45;;;;;;;;;;;12.50;99.90;;;;;;5125545;28;20043;-69
2022/01/02 11:20:28;;;;;;;10.57;5.97;;;12.50;99.90;;;;;;5123955;28;20014;-70
2022/01/02 11:23:03;;;;;;;13.07;5.63;;;12.50;99.90;;;;;;5123614;27;20376;-70
2022/01/02 11:26:06;;;;;;;10.77;5.73;;;12.50;99.90;;;;;;5104007;28;20134;-70
2022/01/02 11:28:37;;;;;;;11.00;5.50;;;12.50;99.90;;;;;;5104682;28;20052;-69
2022/01/02 11:31:05;;;;;;;12.18;5.05;;;12.50;99.90;;;;;;5102800;28;20479;-68
2022/01/02 11:33:42;;;;;;;13.77;5.67;;;12.50;99.90;;;;;;5094122;28;20048;-69
2022/01/02 11:36:30;;;;;;;13.07;6.20;;;12.50;99.90;;;;;;5089723;28;20158;-69
2022/01/02 11:39:05;;;;;;;8.93;5.50;;;12.50;99.90;;;;;;5107317;28;20483;-70
2022/01/02 11:41:44;;;;;;;13.97;5.10;;;12.50;99.90;;;;;;5109566;28;20070;-69
2022/01/02 11:44:21;;;;;;;13.70;5.90;;;12.50;99.90;;;;;;5110370;28;20084;-68
2022/01/02 11:46:52;;;;;;;11.37;5.87;;;12.50;99.90;;;;;;5110989;28;20035;-69
2022/01/02 11:49:19;;;;;;;12.13;5.85;;;12.50;99.90;;;;;;5111354;28;20036;-70
2022/01/02 11:51:50;;;;;;;13.03;5.10;;;12.50;99.90;;;;;;5110129;27;20538;-69
2022/01/02 11:54:28;;;;;;;14.50;5.55;;;12.50;99.90;;;;;;5109703;28;20082;-69
2022/01/02 11:57:15;;;;;;;10.97;4.73;;;12.50;99.90;;;;;;5109149;28;20548;-70
2022/01/02 11:59:44;;;;;;;11.93;4.90;;;12.50;99.90;;;;;;5108848;28;20047;-71
2022/01/02 12:02:30;;;;;;;11.53;4.23;;;12.50;99.90;;;;;;5110779;28;20074;-72
2022/01/02 12:05:03;;;;;;;12.43;5.83;;;12.60;99.90;;;;;;5109745;27;20054;-70
2022/01/02 12:07:35;;;;;;;9.93;3.93;;;12.50;99.90;;;;;;5109354;28;20051;-72
2022/01/02 12:10:35;;;;;;;10.93;4.83;;;12.50;99.90;;;;;;5109876;28;20051;-72
2022/01/02 12:13:12;;;;;;;13.17;4.27;;;12.50;99.90;;;;;;5084356;28;20110;-73
2022/01/02 12:15:38;;;;;;;13.43;4.20;;;12.50;99.90;;;;;;5108176;28;20051;-73
2022/01/02 12:18:07;;;;;;;12.50;4.10;;;12.50;99.90;;;;;;5110580;28;20054;-79
2022/01/02 12:20:51;;;;;;;11.13;4.23;;;12.50;99.90;;;;;;5108173;28;20560;-76
2022/01/02 12:23:40;;;;;;;11.57;4.00;;;12.40;99.90;;;;;;5109586;28;20058;-79
2022/01/02 12:26:20;;;;;;;10.73;3.57;;;12.40;99.90;;;;;;5108329;28;20069;-78
2022/01/02 12:28:56;;;;;;;14.00;4.23;;;12.40;99.90;;;;;;5110448;28;20128;-77
2022/01/02 12:31:24;;;;;;;14.37;4.60;;;12.30;99.90;;;;;;5110959;28;20048;-79
2022/01/02 12:33:50;;;;;;;15.83;4.43;;;12.30;99.90;;;;;;5110164;28;20039;-79
2022/01/02 12:36:18;;;;;;;12.80;3.53;;;12.30;99.90;;;;;;5109128;28;20411;-78
2022/01/02 12:39:06;;;;;;;13.80;3.63;;;12.30;99.90;;;;;;5109098;28;20059;-80
2022/01/02 12:41:35;;;;;;;16.50;3.97;;;12.30;99.90;;;;;;5107998;28;20047;-77
